KLNR/LNR METAR and TAF weather

Enter ICAO airport designator
Station Type Date Time Source
KLNR METAR 2020/01/17 13:56 UTC NOAA

KLNR 171356Z AUTO 10009KT 10SM CLR M14/M18 A3071 RMK AO2 SLP411 T11391183


Station Type Date Time Source
KLNR Decoded METAR 2020/01/17 13:56 UTC NOAA

LONE ROCK TRI-COUNTY REG, WI, United States (KLNR) 43-13N 090-11W 217M
Jan 17, 2020 - 08:56 AM EST / 2020.01.17 1356 UTC
Wind: from the E (100 degrees) at 10 MPH (9 KT):0
Visibility: 10 mile(s):0
Sky conditions: clear
Temperature: 7.0 F (-13.9 C)
Windchill: -7 F (-22 C):2
Dew Point: -0.9 F (-18.3 C)
Relative Humidity: 69%
Pressure (altimeter): 30.71 in. Hg (1039 hPa)
ob: KLNR 171356Z AUTO 10009KT 10SM CLR M14/M18 A3071 RMK AO2 SLP411 T11391183
cycle: 14

Station Type Date Time Source
KLNR TAF UTC NOAA

Error!

Example: see airport list